Time;durP1;ratioP1;P1;durP2;ratioP2;P2;SDS_P1;SDS_P2;PMS_P1;PMS_P2;Temp;Humidity;BMP_temperature;BMP_pressure;BME280_temperature;BME280_humidity;BME280_pressure;Samples;Min_cycle;Max_cycle;Signal;HPM_P1;HPM_P2
2021/05/27 00:00:27;;;;;;;0.50;0.50;;;;;;;7.76;82.60;96947.84;29395;202;63004;-66
2021/05/27 00:00:58;;;;;;;0.60;0.60;;;;;;;7.76;82.64;96945.13;29395;199;63009;-67
2021/05/27 00:01:30;;;;;;;0.60;0.60;;;;;;;7.75;82.43;96943.50;29395;262;63004;-66
2021/05/27 00:02:01;;;;;;;0.60;0.60;;;;;;;7.81;82.43;96947.81;29395;202;63008;-69
2021/05/27 00:02:35;;;;;;;0.60;0.60;;;;;;;7.89;82.25;96939.16;29395;203;63005;-66
2021/05/27 00:03:10;;;;;;;0.60;0.60;;;;;;;7.90;81.96;96939.97;29394;216;64014;-67
2021/05/27 00:03:41;;;;;;;0.60;0.60;;;;;;;7.85;81.97;96946.19;29395;298;63005;-66
2021/05/27 00:04:15;;;;;;;0.60;0.60;;;;;;;7.83;82.23;96945.66;29394;229;64013;-65
2021/05/27 00:04:46;;;;;;;0.60;0.60;;;;;;;7.81;82.33;96947.81;29394;223;64009;-66
2021/05/27 00:05:19;;;;;;;0.60;0.60;;;;;;;7.77;82.22;96946.75;29395;197;63005;-67
2021/05/27 00:05:50;;;;;;;0.60;0.60;;;;;;;7.74;82.36;96952.69;29395;203;63005;-65
2021/05/27 00:06:21;;;;;;;0.60;0.60;;;;;;;7.72;82.46;96949.47;29395;279;63009;-65
2021/05/27 00:06:53;;;;;;;0.60;0.60;;;;;;;7.71;83.03;96953.25;29395;218;63000;-66
2021/05/27 00:07:24;;;;;;;0.60;0.60;;;;;;;7.71;83.27;96947.84;29395;213;63009;-66
2021/05/27 00:07:56;;;;;;;0.60;0.60;;;;;;;7.71;83.04;96947.84;29395;198;63004;-68
2021/05/27 00:08:28;;;;;;;0.60;0.60;;;;;;;7.73;82.91;96951.09;29394;203;64013;-66
2021/05/27 00:08:59;;;;;;;0.60;0.60;;;;;;;7.72;82.76;96952.16;29395;215;63004;-67
2021/05/27 00:09:30;;;;;;;0.60;0.60;;;;;;;7.69;83.09;96952.69;29395;251;63008;-66
2021/05/27 00:10:03;;;;;;;0.60;0.60;;;;;;;7.69;82.87;96952.69;29395;286;63004;-66
2021/05/27 00:10:35;;;;;;;0.60;0.60;;;;;;;7.66;83.08;96953.25;29395;220;63009;-66
2021/05/27 00:11:06;;;;;;;0.60;0.60;;;;;;;7.67;82.98;96952.16;29395;303;63005;-65
2021/05/27 00:11:38;;;;;;;0.50;0.50;;;;;;;7.67;83.03;96944.06;29395;296;63009;-66
2021/05/27 00:12:10;;;;;;;0.60;0.60;;;;;;;7.66;83.07;96948.66;29395;218;63005;-65
2021/05/27 00:12:41;;;;;;;0.60;0.60;;;;;;;7.68;82.79;96951.91;29395;225;63012;-66
2021/05/27 00:13:12;;;;;;;0.60;0.60;;;;;;;7.68;82.85;96951.91;29394;260;64009;-65
2021/05/27 00:13:43;;;;;;;0.60;0.60;;;;;;;7.67;83.06;96952.97;29395;202;63009;-65
2021/05/27 00:14:14;;;;;;;0.60;0.60;;;;;;;7.65;83.38;96952.44;29395;303;63004;-66
2021/05/27 00:14:48;;;;;;;0.60;0.60;;;;;;;7.65;83.57;96951.63;29395;314;63009;-66
2021/05/27 00:15:22;;;;;;;0.60;0.60;;;;;;;7.64;83.25;96956.22;29395;204;63004;-59
2021/05/27 00:15:54;;;;;;;0.60;0.60;;;;;;;7.69;83.21;96952.69;29395;248;63009;-66
2021/05/27 00:16:25;;;;;;;0.60;0.60;;;;;;;7.69;82.79;96958.09;29395;199;63000;-66
2021/05/27 00:16:57;;;;;;;0.60;0.60;;;;;;;7.68;82.85;96957.28;29395;304;63009;-66
2021/05/27 00:17:28;;;;;;;0.60;0.60;;;;;;;7.68;82.73;96951.91;29395;241;63005;-67
2021/05/27 00:18:00;;;;;;;0.60;0.60;;;;;;;7.66;83.12;96951.34;29395;211;63009;-65
2021/05/27 00:18:31;;;;;;;0.60;0.60;;;;;;;7.63;83.59;96954.59;29394;247;64009;-65
2021/05/27 00:19:02;;;;;;;0.60;0.60;;;;;;;7.64;83.55;96955.41;29395;199;63009;-65
2021/05/27 00:19:37;;;;;;;0.60;0.60;;;;;;;7.69;82.99;96950.00;29395;210;63005;-66
2021/05/27 00:20:13;;;;;;;0.60;0.60;;;;;;;7.76;82.95;96953.25;29395;206;63009;-66
2021/05/27 00:20:44;;;;;;;0.60;0.60;;;;;;;7.75;82.66;96951.63;29395;204;63014;-66
2021/05/27 00:21:15;;;;;;;0.60;0.60;;;;;;;7.73;82.69;96953.78;29395;237;63009;-65
2021/05/27 00:21:46;;;;;;;0.60;0.60;;;;;;;7.71;82.97;96950.53;29395;240;63004;-65
2021/05/27 00:22:18;;;;;;;0.60;0.60;;;;;;;7.69;83.12;96955.41;29395;220;63009;-66
2021/05/27 00:22:49;;;;;;;0.60;0.60;;;;;;;7.66;83.07;96953.25;29395;319;63004;-66
2021/05/27 00:23:20;;;;;;;0.60;0.60;;;;;;;7.65;83.26;96949.72;29395;324;63004;-66
2021/05/27 00:23:51;;;;;;;0.60;0.60;;;;;;;7.62;83.41;96944.87;29394;240;64008;-65
2021/05/27 00:24:23;;;;;;;0.60;0.60;;;;;;;7.64;83.44;96952.72;29396;204;63009;-66
2021/05/27 00:24:54;;;;;;;0.60;0.60;;;;;;;7.64;83.17;96950.00;29396;207;63005;-66
2021/05/27 00:25:25;;;;;;;0.60;0.60;;;;;;;7.62;83.80;96950.28;29396;264;63009;-65
2021/05/27 00:25:57;;;;;;;0.60;0.60;;;;;;;7.63;83.73;96953.78;29396;218;63005;-67
2021/05/27 00:26:28;;;;;;;0.60;0.60;;;;;;;7.62;83.91;96949.50;29396;333;63009;-66
2021/05/27 00:27:00;;;;;;;0.60;0.60;;;;;;;7.67;83.50;96944.06;29396;216;63005;-67
2021/05/27 00:27:32;;;;;;;0.52;0.52;;;;;;;7.67;83.54;96950.28;29396;318;63005;-68
2021/05/27 00:28:04;;;;;;;0.60;0.60;;;;;;;7.70;83.59;96948.91;29396;255;63005;-65
2021/05/27 00:28:35;;;;;;;0.60;0.60;;;;;;;7.73;83.66;96945.69;29396;204;63009;-66
2021/05/27 00:29:07;;;;;;;0.60;0.60;;;;;;;7.72;83.32;96954.88;29395;270;64009;-66
2021/05/27 00:29:39;;;;;;;0.60;0.60;;;;;;;7.69;83.40;96941.91;29396;212;63026;-66
2021/05/27 00:30:12;;;;;;;0.60;0.60;;;;;;;7.65;83.17;96957.03;29396;231;63004;-65
2021/05/27 00:30:45;;;;;;;0.60;0.60;;;;;;;7.64;83.47;96947.31;29396;239;63009;-67
2021/05/27 00:31:16;;;;;;;0.60;0.60;;;;;;;7.64;83.69;96950.00;29395;219;64004;-69
2021/05/27 00:31:47;;;;;;;0.70;0.70;;;;;;;7.64;83.58;96950.00;29396;202;63008;-65
2021/05/27 00:32:20;;;;;;;0.60;0.60;;;;;;;7.69;83.48;96953.50;29396;211;63005;-68
2021/05/27 00:32:51;;;;;;;0.60;0.60;;;;;;;7.70;83.40;96954.31;29396;203;63009;-67
2021/05/27 00:33:23;;;;;;;0.60;0.60;;;;;;;7.71;83.32;96945.13;29396;402;63005;-67
2021/05/27 00:33:54;;;;;;;0.60;0.60;;;;;;;7.70;83.39;96948.91;29396;258;63009;-67
2021/05/27 00:34:28;;;;;;;0.60;0.60;;;;;;;7.67;83.65;96955.69;29395;210;64009;-65
2021/05/27 00:34:59;;;;;;;0.60;0.60;;;;;;;7.64;83.86;96952.72;29396;204;63009;-67
2021/05/27 00:35:31;;;;;;;0.60;0.60;;;;;;;7.64;83.85;96947.31;29396;294;63005;-63
2021/05/27 00:36:05;;;;;;;0.60;0.60;;;;;;;7.63;84.02;96948.38;29396;214;63009;-66
2021/05/27 00:36:36;;;;;;;0.60;0.60;;;;;;;7.63;83.75;96948.38;29396;196;63004;-65
2021/05/27 00:37:07;;;;;;;0.60;0.60;;;;;;;7.61;83.52;96943.28;29396;270;63009;-64
2021/05/27 00:37:41;;;;;;;0.60;0.60;;;;;;;7.62;83.75;96946.81;29395;223;64009;-68
2021/05/27 00:38:14;;;;;;;0.60;0.60;;;;;;;7.65;83.54;96948.91;29395;286;64013;-66
2021/05/27 00:38:45;;;;;;;0.60;0.60;;;;;;;7.66;83.38;96947.84;29396;204;63004;-67
2021/05/27 00:39:17;;;;;;;0.60;0.60;;;;;;;7.64;83.48;96944.59;29396;236;63008;-66
2021/05/27 00:39:48;;;;;;;0.60;0.60;;;;;;;7.64;83.43;96944.59;29396;219;63005;-65
2021/05/27 00:40:20;;;;;;;0.60;0.60;;;;;;;7.63;83.61;96943.78;29396;220;63009;-65
2021/05/27 00:40:51;;;;;;;0.60;0.60;;;;;;;7.64;83.25;96950.00;29396;197;63005;-66
2021/05/27 00:41:22;;;;;;;0.60;0.60;;;;;;;7.61;83.23;96942.47;29396;214;63009;-66
2021/05/27 00:41:54;;;;;;;0.60;0.60;;;;;;;7.59;83.43;96947.34;29396;328;63005;-66
2021/05/27 00:42:25;;;;;;;0.60;0.60;;;;;;;7.62;83.28;96952.19;29396;225;63009;-67
2021/05/27 00:42:56;;;;;;;0.60;0.60;;;;;;;7.63;83.30;96953.78;29396;236;63005;-67
2021/05/27 00:43:34;;;;;;;0.60;0.60;;;;;;;7.60;84.09;96948.97;29395;215;64013;-66
2021/05/27 00:44:30;;;;;;;0.60;0.60;;;;;;;7.60;83.72;96951.66;29396;281;63004;-65
2021/05/27 00:45:07;;;;;;;0.60;0.60;;;;;;;7.57;83.88;96949.50;29396;325;63009;-65
2021/05/27 00:45:39;;;;;;;0.60;0.60;;;;;;;7.55;83.83;96948.97;29395;322;64009;-66
2021/05/27 00:46:10;;;;;;;0.60;0.60;;;;;;;7.56;83.80;96955.97;29396;212;63008;-67
2021/05/27 00:46:41;;;;;;;0.60;0.60;;;;;;;7.55;83.73;96940.84;29396;203;63004;-67
2021/05/27 00:47:12;;;;;;;0.60;0.60;;;;;;;7.54;83.69;96956.25;29395;287;64014;-68
2021/05/27 00:47:45;;;;;;;0.60;0.60;;;;;;;7.55;83.79;96952.47;29396;197;63005;-66
2021/05/27 00:49:06;;;;;;;0.60;0.60;;;;;;;7.65;82.99;96952.44;29395;250;64005;-65
2021/05/27 00:49:37;;;;;;;0.60;0.60;;;;;;;7.71;82.76;96956.75;29396;273;63009;-66
2021/05/27 00:50:20;;;;;;;0.60;0.60;;;;;;;7.70;82.46;96949.72;29396;217;63005;-66
2021/05/27 00:50:51;;;;;;;0.60;0.60;;;;;;;7.68;82.79;96951.91;29395;203;64013;-66
2021/05/27 00:51:22;;;;;;;0.60;0.60;;;;;;;7.63;83.04;96954.59;29396;208;63004;-65
2021/05/27 00:51:55;;;;;;;0.60;0.60;;;;;;;7.58;83.62;96948.41;29396;205;63009;-64
2021/05/27 00:52:27;;;;;;;0.60;0.60;;;;;;;7.55;83.26;96946.25;29396;207;63000;-65
2021/05/27 00:52:58;;;;;;;0.60;0.60;;;;;;;7.54;83.67;96950.03;29396;204;63009;-66
2021/05/27 00:53:31;;;;;;;0.60;0.60;;;;;;;7.52;83.74;96952.19;29396;203;63004;-66
2021/05/27 00:54:03;;;;;;;0.60;0.60;;;;;;;7.49;84.11;96958.13;29396;227;63008;-66
2021/05/27 00:54:34;;;;;;;0.60;0.60;;;;;;;7.47;84.00;96952.19;29396;216;63005;-64
2021/05/27 00:55:07;;;;;;;0.60;0.60;;;;;;;7.49;83.64;96950.03;29396;202;63009;-66
2021/05/27 00:55:39;;;;;;;0.60;0.60;;;;;;;7.49;83.64;96952.75;29395;217;64009;-66
2021/05/27 00:56:11;;;;;;;0.60;0.60;;;;;;;7.49;83.85;96958.13;29396;203;63009;-66
2021/05/27 00:56:42;;;;;;;0.60;0.60;;;;;;;7.49;83.57;96955.44;29396;210;63005;-66
2021/05/27 00:57:38;;;;;;;0.60;0.60;;;;;;;7.49;83.97;96952.75;29396;238;63009;-66
2021/05/27 00:58:09;;;;;;;0.60;0.60;;;;;;;7.49;84.09;96952.75;29396;233;63005;-64
2021/05/27 00:58:43;;;;;;;0.60;0.60;;;;;;;7.48;84.31;96956.53;29396;220;63009;-66
2021/05/27 00:59:15;;;;;;;0.60;0.60;;;;;;;7.51;84.05;96961.38;29395;220;64009;-65
2021/05/27 00:59:46;;;;;;;0.60;0.60;;;;;;;7.52;83.88;96957.59;29396;223;63009;-65
2021/05/27 01:00:23;;;;;;;0.60;0.60;;;;;;;7.51;83.76;96956.78;29396;220;63004;-65
2021/05/27 01:00:54;;;;;;;0.60;0.60;;;;;;;7.51;83.67;96964.09;29395;267;64013;-65
2021/05/27 01:01:26;;;;;;;0.60;0.60;;;;;;;7.50;83.90;96954.38;29396;196;63006;-65
2021/05/27 01:01:57;;;;;;;0.60;0.60;;;;;;;7.49;84.23;96958.13;29396;198;63008;-66
2021/05/27 01:02:28;;;;;;;0.57;0.57;;;;;;;7.48;84.18;96956.53;29396;228;63005;-66
2021/05/27 01:02:59;;;;;;;0.60;0.60;;;;;;;7.50;83.95;96955.16;29396;226;63009;-66
2021/05/27 01:03:30;;;;;;;0.60;0.60;;;;;;;7.52;83.63;96952.19;29396;213;63005;-60
2021/05/27 01:04:04;;;;;;;0.60;0.60;;;;;;;7.54;83.64;96958.13;29396;244;63009;-66
2021/05/27 01:04:35;;;;;;;0.60;0.60;;;;;;;7.55;83.22;96960.56;29396;227;63005;-66
2021/05/27 01:05:11;;;;;;;0.60;0.60;;;;;;;7.59;83.15;96958.94;29396;202;63009;-65
2021/05/27 01:05:43;;;;;;;0.60;0.60;;;;;;;7.60;83.18;96957.06;29395;196;64009;-67
2021/05/27 01:06:14;;;;;;;0.60;0.60;;;;;;;7.58;82.93;96956.53;29396;247;63009;-65
2021/05/27 01:06:45;;;;;;;0.70;0.70;;;;;;;7.59;83.07;96958.13;29396;226;63010;-65
2021/05/27 01:07:16;;;;;;;0.60;0.60;;;;;;;7.56;83.15;96954.09;29396;206;63009;-67
2021/05/27 01:07:49;;;;;;;0.60;0.60;;;;;;;7.58;82.83;96962.72;29396;242;63010;-66
2021/05/27 01:08:20;;;;;;;0.60;0.60;;;;;;;7.59;82.89;96961.66;29397;253;63004;-66
2021/05/27 01:08:51;;;;;;;0.60;0.60;;;;;;;7.60;83.00;96965.16;29397;223;63004;-65
2021/05/27 01:09:22;;;;;;;0.60;0.60;;;;;;;7.56;83.15;96959.50;29397;199;63008;-66
2021/05/27 01:09:53;;;;;;;0.60;0.60;;;;;;;7.56;82.97;96964.09;29397;202;63008;-65
2021/05/27 01:10:25;;;;;;;0.60;0.60;;;;;;;7.54;83.15;96966.25;29397;220;63009;-65
2021/05/27 01:10:57;;;;;;;0.60;0.60;;;;;;;7.51;83.22;96961.38;29396;205;64009;-66
2021/05/27 01:11:28;;;;;;;0.80;0.80;;;;;;;7.49;83.34;96964.34;29397;221;63009;-66
2021/05/27 01:11:59;;;;;;;0.60;0.60;;;;;;;7.48;83.37;96961.91;29397;233;63005;-65
2021/05/27 01:12:30;;;;;;;0.60;0.60;;;;;;;7.47;83.70;96966.50;29397;232;63009;-66
2021/05/27 01:13:02;;;;;;;0.60;0.60;;;;;;;7.47;83.86;96968.41;29397;367;63004;-66
2021/05/27 01:13:34;;;;;;;0.60;0.60;;;;;;;7.46;84.03;96966.78;29397;297;63009;-67
2021/05/27 01:15:26;;;;;;;0.60;0.60;;;;;;;7.44;84.19;96960.84;29396;239;64009;-66
2021/05/27 01:15:34;;;;;;;0.60;0.60;;;;;;;7.40;84.07;96966.78;29397;198;63009;-67
2021/05/27 01:16:12;;;;;;;0.50;0.50;;;;;;;7.39;84.20;96965.16;29397;213;63004;-66
2021/05/27 01:16:44;;;;;;;0.60;0.60;;;;;;;7.39;84.15;96965.16;29397;199;63009;-66
2021/05/27 01:17:15;;;;;;;0.70;0.70;;;;;;;7.40;84.35;96961.38;29397;216;63005;-65
2021/05/27 01:17:46;;;;;;;0.60;0.60;;;;;;;7.43;84.03;96956.53;29396;292;64014;-66
2021/05/27 01:18:22;;;;;;;0.60;0.60;;;;;;;7.45;83.96;96963.28;29397;203;63005;-65
2021/05/27 01:18:53;;;;;;;0.60;0.60;;;;;;;7.51;83.48;96964.09;29397;205;63009;-66
2021/05/27 01:19:24;;;;;;;0.60;0.60;;;;;;;7.52;83.26;96957.59;29397;228;63005;-65
2021/05/27 01:19:55;;;;;;;0.60;0.60;;;;;;;7.54;83.32;96960.84;29397;220;63009;-67
2021/05/27 01:20:30;;;;;;;0.60;0.60;;;;;;;7.54;83.05;96960.84;29396;228;64009;-66
2021/05/27 01:21:04;;;;;;;0.60;0.60;;;;;;;7.52;83.35;96960.31;29397;220;63009;-65
2021/05/27 01:21:43;;;;;;;0.60;0.60;;;;;;;7.48;83.74;96959.22;29396;238;63004;-65
2021/05/27 01:22:14;;;;;;;0.60;0.60;;;;;;;7.44;84.00;96960.84;29396;207;63016;-66
2021/05/27 01:22:45;;;;;;;0.60;0.60;;;;;;;7.42;83.88;96958.41;29396;294;63004;-66
2021/05/27 01:23:17;;;;;;;0.60;0.60;;;;;;;7.42;84.22;96963.00;29396;220;63008;-66
2021/05/27 01:23:49;;;;;;;0.60;0.60;;;;;;;7.42;83.99;96963.00;29395;209;64021;-65
2021/05/27 01:24:20;;;;;;;0.60;0.60;;;;;;;7.42;84.33;96958.41;29396;358;63009;-66
2021/05/27 01:24:51;;;;;;;0.60;0.60;;;;;;;7.44;83.96;96955.44;29396;204;63005;-66
2021/05/27 01:25:23;;;;;;;0.60;0.60;;;;;;;7.46;84.05;96958.69;29396;207;63009;-66
2021/05/27 01:25:56;;;;;;;0.60;0.60;;;;;;;7.47;83.93;96957.59;29396;225;63005;-66
2021/05/27 01:26:27;;;;;;;0.60;0.60;;;;;;;7.48;83.91;96956.53;29396;212;63009;-66
2021/05/27 01:27:00;;;;;;;0.60;0.60;;;;;;;7.49;83.81;96960.84;29395;215;64005;-67
2021/05/27 01:27:31;;;;;;;0.60;0.60;;;;;;;7.45;83.97;96959.75;29396;301;63009;-68
2021/05/27 01:28:04;;;;;;;0.60;0.60;;;;;;;7.45;83.80;96963.28;29395;212;64009;-66
2021/05/27 01:28:37;;;;;;;0.60;0.60;;;;;;;7.49;83.45;96955.44;29396;215;63009;-70
2021/05/27 01:29:08;;;;;;;0.70;0.70;;;;;;;7.53;83.42;96960.03;29396;233;63004;-66
2021/05/27 01:29:41;;;;;;;0.60;0.60;;;;;;;7.56;83.37;96964.09;29396;202;63019;-66
2021/05/27 01:30:14;;;;;;;0.60;0.60;;;;;;;7.56;83.22;96966.78;29396;209;63004;-64
2021/05/27 01:30:47;;;;;;;0.60;0.60;;;;;;;7.53;83.23;96960.03;29396;390;63008;-67
2021/05/27 01:31:18;;;;;;;0.60;0.60;;;;;;;7.52;83.65;96963.00;29396;242;63004;-66
2021/05/27 01:31:49;;;;;;;0.60;0.60;;;;;;;7.47;83.58;96961.09;29396;209;63009;-66
2021/05/27 01:32:22;;;;;;;0.60;0.60;;;;;;;7.47;83.71;96965.69;29396;215;63009;-67
2021/05/27 01:32:53;;;;;;;0.60;0.60;;;;;;;7.52;83.44;96968.41;29396;203;63009;-66
2021/05/27 01:33:25;;;;;;;0.60;0.60;;;;;;;7.52;83.39;96968.41;29395;234;64009;-66
2021/05/27 01:33:59;;;;;;;0.60;0.60;;;;;;;7.51;83.40;96961.38;29396;319;63009;-65
2021/05/27 01:34:30;;;;;;;0.60;0.60;;;;;;;7.50;83.48;96974.06;29396;237;63005;-66
2021/05/27 01:35:02;;;;;;;0.60;0.60;;;;;;;7.52;83.51;96968.41;29396;203;63009;-66
2021/05/27 01:35:37;;;;;;;0.60;0.60;;;;;;;7.51;83.33;96967.59;29396;202;63005;-65
2021/05/27 01:36:09;;;;;;;0.70;0.70;;;;;;;7.52;83.60;96979.19;29396;224;63009;-69
2021/05/27 01:36:47;;;;;;;0.50;0.50;;;;;;;7.52;83.53;96979.19;29395;216;64023;-69
2021/05/27 01:37:18;;;;;;;0.60;0.60;;;;;;;7.53;83.27;96972.72;29396;245;63009;-67
2021/05/27 01:37:50;;;;;;;0.60;0.60;;;;;;;7.53;83.27;96972.72;29396;261;63004;-65
2021/05/27 01:38:25;;;;;;;0.60;0.60;;;;;;;7.53;83.17;96970.84;29396;276;63008;-66
2021/05/27 01:38:56;;;;;;;0.60;0.60;;;;;;;7.54;83.14;96977.03;29396;290;63004;-71
2021/05/27 01:39:27;;;;;;;0.60;0.60;;;;;;;7.59;82.81;96963.53;29396;205;63009;-66
2021/05/27 01:39:59;;;;;;;0.60;0.60;;;;;;;7.60;82.60;96973.25;29397;230;63005;-67
2021/05/27 01:40:30;;;;;;;0.60;0.60;;;;;;;7.60;82.85;96971.38;29396;221;63017;-67
2021/05/27 01:41:04;;;;;;;0.60;0.60;;;;;;;7.61;82.56;96973.00;29396;238;63005;-68
2021/05/27 01:41:35;;;;;;;0.60;0.60;;;;;;;7.62;82.83;96976.50;29395;214;64013;-67
2021/05/27 01:42:07;;;;;;;0.60;0.60;;;;;;;7.73;82.50;96970.78;29396;210;63005;-65
2021/05/27 01:42:38;;;;;;;0.60;0.60;;;;;;;7.74;81.86;96967.00;29396;234;63009;-66
2021/05/27 01:43:10;;;;;;;0.60;0.60;;;;;;;7.71;81.59;96966.75;29396;222;63005;-66
2021/05/27 01:43:41;;;;;;;0.60;0.60;;;;;;;7.67;82.26;96973.78;29396;239;63009;-66
2021/05/27 01:44:12;;;;;;;0.60;0.60;;;;;;;7.63;82.31;96978.91;29396;197;63004;-69
2021/05/27 01:44:44;;;;;;;0.60;0.60;;;;;;;7.66;82.52;96974.84;29396;209;63009;-66
2021/05/27 01:45:19;;;;;;;0.60;0.60;;;;;;;7.66;82.14;96980.25;29396;198;63004;-66
2021/05/27 01:45:51;;;;;;;0.60;0.60;;;;;;;7.64;82.37;96968.91;29396;196;63008;-66
2021/05/27 01:46:22;;;;;;;0.60;0.60;;;;;;;7.70;82.27;96968.63;29395;218;64008;-65
2021/05/27 01:46:53;;;;;;;0.60;0.60;;;;;;;7.70;82.03;96978.62;29397;268;63009;-68
2021/05/27 01:47:24;;;;;;;0.60;0.60;;;;;;;7.78;81.43;96972.69;29396;257;63005;-71
2021/05/27 01:47:56;;;;;;;0.60;0.60;;;;;;;7.83;81.00;96975.37;29396;199;63009;-66
2021/05/27 01:48:27;;;;;;;0.50;0.50;;;;;;;7.84;80.90;96976.19;29396;337;63005;-65
2021/05/27 01:49:02;;;;;;;0.60;0.60;;;;;;;7.83;81.25;96969.97;29396;303;63009;-68
2021/05/27 01:49:33;;;;;;;0.60;0.60;;;;;;;7.81;81.37;96966.75;29395;197;64009;-65
2021/05/27 01:50:08;;;;;;;0.50;0.50;;;;;;;7.78;81.35;96969.16;29395;203;64013;-66
2021/05/27 01:50:44;;;;;;;0.60;0.60;;;;;;;7.70;81.47;96965.13;29396;209;63005;-65
2021/05/27 01:51:15;;;;;;;0.50;0.50;;;;;;;7.67;81.96;96963.78;29396;226;63009;-66
2021/05/27 01:51:51;;;;;;;0.60;0.60;;;;;;;7.64;82.17;96966.22;29396;248;63004;-68
2021/05/27 01:52:22;;;;;;;0.60;0.60;;;;;;;7.67;82.33;96971.06;29395;222;64013;-67
2021/05/27 01:53:04;;;;;;;0.60;0.60;;;;;;;7.70;81.89;96968.63;29396;230;63004;-65
2021/05/27 01:53:35;;;;;;;0.60;0.60;;;;;;;7.67;81.92;96966.47;29396;264;63008;-66
2021/05/27 01:54:06;;;;;;;0.60;0.60;;;;;;;7.71;82.10;96972.16;29395;226;64009;-67
2021/05/27 01:54:38;;;;;;;0.50;0.50;;;;;;;7.72;81.95;96969.19;29396;225;63009;-66
2021/05/27 01:55:10;;;;;;;0.60;0.60;;;;;;;7.71;82.06;96972.16;29396;218;63005;-65
2021/05/27 01:55:43;;;;;;;0.60;0.60;;;;;;;7.68;82.37;96973.50;29396;237;63009;-67
2021/05/27 01:56:14;;;;;;;0.60;0.60;;;;;;;7.64;82.32;96971.59;29396;204;63005;-67
2021/05/27 01:56:45;;;;;;;0.60;0.60;;;;;;;7.63;82.65;96973.50;29396;217;63009;-67
2021/05/27 01:57:16;;;;;;;0.60;0.60;;;;;;;7.62;82.52;96971.88;29396;367;63005;-67
2021/05/27 01:57:47;;;;;;;0.60;0.60;;;;;;;7.61;82.74;96974.87;29396;214;63009;-66
2021/05/27 01:58:19;;;;;;;0.60;0.60;;;;;;;7.62;82.74;96973.81;29396;238;63004;-65
2021/05/27 01:58:50;;;;;;;0.50;0.50;;;;;;;7.60;82.77;96973.25;29396;199;63009;-65
2021/05/27 01:59:22;;;;;;;0.52;0.52;;;;;;;7.58;82.54;96976.22;29395;373;64009;-66
2021/05/27 01:59:53;;;;;;;0.60;0.60;;;;;;;7.58;82.73;96978.13;29396;203;63009;-69
2021/05/27 02:00:26;;;;;;;0.60;0.60;;;;;;;7.66;82.15;96974.84;29396;226;63010;-64
2021/05/27 02:00:58;;;;;;;0.60;0.60;;;;;;;7.65;82.49;96967.81;29396;295;63008;-66
2021/05/27 02:01:30;;;;;;;0.60;0.60;;;;;;;7.62;82.47;96976.50;29395;347;64008;-66
2021/05/27 02:02:01;;;;;;;0.60;0.60;;;;;;;7.60;82.85;96975.97;29396;239;63018;-66
2021/05/27 02:02:32;;;;;;;0.60;0.60;;;;;;;7.59;82.79;96985.16;29396;210;63005;-63
2021/05/27 02:03:04;;;;;;;0.60;0.60;;;;;;;7.64;81.98;96972.41;29396;214;63005;-66
2021/05/27 02:03:35;;;;;;;0.60;0.60;;;;;;;7.71;81.25;96974.84;29395;229;64009;-66
2021/05/27 02:04:06;;;;;;;0.60;0.60;;;;;;;7.72;81.44;96974.56;29396;226;63009;-66
2021/05/27 02:04:37;;;;;;;0.60;0.60;;;;;;;7.70;81.44;96975.94;29396;262;63005;-68
2021/05/27 02:05:09;;;;;;;0.60;0.60;;;;;;;7.65;81.91;96976.75;29396;391;63009;-65
2021/05/27 02:05:41;;;;;;;0.60;0.60;;;;;;;7.62;82.56;96979.19;29395;267;64009;-66
2021/05/27 02:06:12;;;;;;;0.60;0.60;;;;;;;7.58;82.66;96976.22;29396;235;63009;-67
2021/05/27 02:06:43;;;;;;;0.60;0.60;;;;;;;7.58;82.34;96972.72;29396;218;63004;-66
2021/05/27 02:07:15;;;;;;;0.60;0.60;;;;;;;7.55;83.04;96979.47;29396;204;63009;-66
2021/05/27 02:07:46;;;;;;;0.60;0.60;;;;;;;7.54;83.04;96975.16;29396;362;63004;-66
2021/05/27 02:08:20;;;;;;;0.60;0.60;;;;;;;7.54;83.18;96983.25;29396;274;63024;-66
2021/05/27 02:09:09;;;;;;;0.60;0.60;;;;;;;7.57;82.99;96981.91;29396;400;63004;-65
2021/05/27 02:09:42;;;;;;;0.60;0.60;;;;;;;7.59;82.48;96977.84;29395;219;64014;-67
2021/05/27 02:10:13;;;;;;;0.60;0.60;;;;;;;7.59;82.46;96977.03;29396;335;63009;-67
2021/05/27 02:10:45;;;;;;;0.60;0.60;;;;;;;7.58;82.60;96978.94;29395;237;64014;-67
2021/05/27 02:11:16;;;;;;;0.60;0.60;;;;;;;7.58;82.62;96978.13;29395;207;64009;-66
2021/05/27 02:11:49;;;;;;;0.60;0.60;;;;;;;7.58;82.80;96984.34;29397;237;63009;-65
2021/05/27 02:12:21;;;;;;;0.60;0.60;;;;;;;7.60;82.41;96975.97;29397;304;63005;-58
2021/05/27 02:12:52;;;;;;;0.60;0.60;;;;;;;7.62;82.45;96973.81;29397;301;63009;-67
2021/05/27 02:13:23;;;;;;;0.60;0.60;;;;;;;7.61;82.11;96993.78;29397;293;63004;-67
2021/05/27 02:13:55;;;;;;;0.60;0.60;;;;;;;7.58;82.61;96978.13;29397;269;63012;-67
2021/05/27 02:14:29;;;;;;;0.60;0.60;;;;;;;7.64;81.97;96980.53;29397;211;63004;-67
2021/05/27 02:15:01;;;;;;;0.60;0.60;;;;;;;7.66;81.90;96986.47;29395;221;63016;-68
2021/05/27 02:15:33;;;;;;;0.60;0.60;;;;;;;7.67;82.05;96977.28;29394;335;64021;-70
2021/05/27 02:16:04;;;;;;;0.60;0.60;;;;;;;7.74;81.53;96979.72;29395;251;63018;-66
2021/05/27 02:16:37;;;;;;;0.60;0.60;;;;;;;7.74;81.61;96977.00;29394;197;64008;-66
2021/05/27 02:17:08;;;;;;;0.60;0.60;;;;;;;7.71;81.74;96978.34;29395;240;63009;-67
2021/05/27 02:17:40;;;;;;;0.60;0.60;;;;;;;7.69;82.08;96977.00;29396;240;63005;-66
2021/05/27 02:18:11;;;;;;;0.60;0.60;;;;;;;7.67;81.94;96979.16;29395;219;63009;-67
2021/05/27 02:18:42;;;;;;;0.60;0.60;;;;;;;7.64;82.04;96980.53;29395;212;63005;-66
2021/05/27 02:19:14;;;;;;;0.60;0.60;;;;;;;7.64;82.23;96982.41;29395;215;63009;-67
2021/05/27 02:19:45;;;;;;;0.60;0.60;;;;;;;7.65;82.21;96986.72;29393;199;63999;-68
2021/05/27 02:20:16;;;;;;;0.60;0.60;;;;;;;7.69;82.00;96985.91;29395;213;63009;-66
2021/05/27 02:20:48;;;;;;;0.60;0.60;;;;;;;7.78;81.11;96983.50;29395;199;63004;-64
2021/05/27 02:21:18;;;;;;;0.60;0.60;;;;;;;7.78;80.88;96971.88;29395;211;63017;-65
2021/05/27 02:21:50;;;;;;;0.60;0.60;;;;;;;7.77;80.73;96981.88;29395;210;63004;-67
2021/05/27 02:22:22;;;;;;;0.60;0.60;;;;;;;7.77;81.30;96981.06;29395;232;63009;-67
2021/05/27 02:22:54;;;;;;;0.60;0.60;;;;;;;7.75;81.19;96981.31;29395;232;63004;-66
2021/05/27 02:23:25;;;;;;;0.60;0.60;;;;;;;7.71;81.35;96982.94;29393;399;64013;-67
2021/05/27 02:23:59;;;;;;;0.52;0.52;;;;;;;7.66;81.23;96978.34;29395;276;63005;-66
2021/05/27 02:24:30;;;;;;;0.60;0.60;;;;;;;7.65;81.63;96984.03;29395;209;63009;-66
2021/05/27 02:25:02;;;;;;;0.50;0.50;;;;;;;7.63;81.65;96975.37;29395;233;63005;-66
2021/05/27 02:25:33;;;;;;;0.60;0.60;;;;;;;7.61;82.17;96977.59;29395;219;63009;-67
2021/05/27 02:26:04;;;;;;;0.60;0.60;;;;;;;7.59;82.03;96977.03;29395;347;63005;-65
2021/05/27 02:26:36;;;;;;;0.60;0.60;;;;;;;7.56;82.50;96980.28;29395;268;63009;-67
2021/05/27 02:27:07;;;;;;;0.60;0.60;;;;;;;7.55;82.47;96978.66;29395;197;63005;-61
2021/05/27 02:27:39;;;;;;;0.60;0.60;;;;;;;7.55;82.46;96984.06;29393;206;64013;-67
2021/05/27 02:28:11;;;;;;;0.60;0.60;;;;;;;7.55;82.74;96984.88;29395;207;63004;-67
2021/05/27 02:28:42;;;;;;;0.60;0.60;;;;;;;7.55;82.86;96990.28;29395;203;63004;-66
2021/05/27 02:29:13;;;;;;;0.60;0.60;;;;;;;7.55;82.86;96984.06;29395;203;63004;-59
2021/05/27 02:29:44;;;;;;;0.60;0.60;;;;;;;7.55;82.98;96984.88;29395;202;63009;-66
2021/05/27 02:30:17;;;;;;;0.60;0.60;;;;;;;7.56;82.71;96985.69;29395;206;63004;-66
2021/05/27 02:30:48;;;;;;;0.60;0.60;;;;;;;7.53;83.18;96981.63;29395;230;63008;-66
2021/05/27 02:31:21;;;;;;;0.60;0.60;;;;;;;7.53;82.90;96991.63;29395;210;63005;-66
2021/05/27 02:31:55;;;;;;;0.60;0.60;;;;;;;7.53;83.22;96986.22;29395;324;63009;-67
2021/05/27 02:32:27;;;;;;;0.60;0.60;;;;;;;7.55;82.93;96984.88;29395;326;63005;-67
2021/05/27 02:32:59;;;;;;;0.60;0.60;;;;;;;7.63;82.37;96994.28;29393;235;64013;-69
2021/05/27 02:33:31;;;;;;;0.60;0.60;;;;;;;7.73;81.37;96986.19;29394;230;64005;-66
2021/05/27 02:34:03;;;;;;;0.60;0.60;;;;;;;7.73;81.29;96981.59;29395;214;63009;-67
2021/05/27 02:34:34;;;;;;;0.60;0.60;;;;;;;7.77;81.01;96981.88;29395;240;63005;-68
2021/05/27 02:35:06;;;;;;;0.60;0.60;;;;;;;7.78;80.50;96980.78;29395;217;63009;-67
2021/05/27 02:35:40;;;;;;;0.60;0.60;;;;;;;7.77;80.61;96984.56;29395;235;63004;-68
2021/05/27 02:36:11;;;;;;;0.60;0.60;;;;;;;7.79;80.53;96984.28;29395;204;63009;-66
2021/05/27 02:36:43;;;;;;;0.60;0.60;;;;;;;7.76;80.72;96985.66;29395;221;63004;-66
2021/05/27 02:37:15;;;;;;;0.60;0.60;;;;;;;7.70;81.14;96981.31;29395;236;63014;-67
2021/05/27 02:37:47;;;;;;;0.60;0.60;;;;;;;7.69;81.59;96990.50;29395;232;63004;-70